N703PR KSDL-KSFO
Flight info
| Callsign | N703PR |
|---|---|
| Flight time | 1h 26m |
| Altitude | 38000 |
| Route | IZZZO8 HRRBR CURIV J212 DECAS PMD SERFR SERFR4 |
| Aircraft | C750/M-SBDE3FGHRWXY/S |
Departure
| Time | 2026-05-06 03:50 |
|---|---|
| Airport | Scottsdale Airport (KSDL) |
Arrival
| Time | 2026-05-06 05:16 |
|---|---|
| Airport | San Francisco International Airport (KSFO) |
| Time | Latitude | Longitude | Altitude | Speed | Heading |
|---|---|---|---|---|---|
| 2026-05-06 03:29 | 33.62120 | -111.91516 | 1466 ft | 0 kts | 315° |
| 2026-05-06 03:43 | 33.62124 | -111.91518 | 1462 ft | 1 kts | 343° |
| 2026-05-06 03:43 | 33.62132 | -111.91512 | 1464 ft | 1 kts | 48° |
| 2026-05-06 03:44 | 33.62136 | -111.91494 | 1466 ft | 3 kts | 78° |
| 2026-05-06 03:44 | 33.62127 | -111.91458 | 1466 ft | 6 kts | 117° |
| 2026-05-06 03:44 | 33.62127 | -111.91406 | 1464 ft | 8 kts | 51° |
| 2026-05-06 03:44 | 33.62167 | -111.91353 | 1465 ft | 8 kts | 70° |
| 2026-05-06 03:45 | 33.62178 | -111.91297 | 1472 ft | 8 kts | 44° |
| 2026-05-06 03:45 | 33.62218 | -111.91251 | 1474 ft | 9 kts | 44° |
| 2026-05-06 03:45 | 33.62269 | -111.91192 | 1471 ft | 11 kts | 44° |
| 2026-05-06 03:45 | 33.62331 | -111.91120 | 1475 ft | 13 kts | 43° |
| 2026-05-06 03:46 | 33.62397 | -111.91045 | 1485 ft | 13 kts | 44° |
| 2026-05-06 03:46 | 33.62465 | -111.90964 | 1488 ft | 15 kts | 44° |
| 2026-05-06 03:46 | 33.62546 | -111.90871 | 1488 ft | 17 kts | 44° |
| 2026-05-06 03:46 | 33.62634 | -111.90765 | 1492 ft | 19 kts | 46° |
| 2026-05-06 03:47 | 33.62739 | -111.90649 | 1497 ft | 22 kts | 45° |
| 2026-05-06 03:47 | 33.62858 | -111.90511 | 1501 ft | 25 kts | 44° |
| 2026-05-06 03:47 | 33.62990 | -111.90358 | 1506 ft | 27 kts | 43° |
| 2026-05-06 03:47 | 33.63103 | -111.90232 | 1512 ft | 12 kts | 45° |
| 2026-05-06 03:48 | 33.63134 | -111.90191 | 1514 ft | 1 kts | 69° |
| 2026-05-06 03:48 | 33.63134 | -111.90188 | 1514 ft | 1 kts | 89° |
| 2026-05-06 03:48 | 33.63132 | -111.90159 | 1515 ft | 6 kts | 111° |
| 2026-05-06 03:48 | 33.63098 | -111.90126 | 1515 ft | 2 kts | 219° |
| 2026-05-06 03:49 | 33.63058 | -111.90173 | 1513 ft | 13 kts | 224° |
| 2026-05-06 03:49 | 33.62962 | -111.90281 | 1508 ft | 27 kts | 224° |
| 2026-05-06 03:49 | 33.62713 | -111.90569 | 1498 ft | 90 kts | 224° |
| 2026-05-06 03:49 | 33.62083 | -111.91303 | 1591 ft | 144 kts | 227° |
| 2026-05-06 03:50 | 33.61386 | -111.92235 | 2116 ft | 157 kts | 241° |
| 2026-05-06 03:50 | 33.61402 | -111.93564 | 2660 ft | 167 kts | 291° |
| 2026-05-06 03:50 | 33.62230 | -111.94538 | 3365 ft | 174 kts | 327° |
| 2026-05-06 03:50 | 33.63400 | -111.94961 | 4092 ft | 177 kts | 344° |
| 2026-05-06 03:51 | 33.64594 | -111.95219 | 4775 ft | 181 kts | 345° |
| 2026-05-06 03:51 | 33.65891 | -111.95503 | 5191 ft | 199 kts | 345° |
| 2026-05-06 03:51 | 33.67320 | -111.95847 | 5576 ft | 218 kts | 345° |
| 2026-05-06 03:51 | 33.68792 | -111.96400 | 5931 ft | 228 kts | 326° |
| 2026-05-06 03:52 | 33.69818 | -111.97845 | 6338 ft | 240 kts | 294° |
| 2026-05-06 03:52 | 33.70078 | -111.99932 | 6534 ft | 269 kts | 262° |
| 2026-05-06 03:52 | 33.69340 | -112.01972 | 7517 ft | 265 kts | 238° |
| 2026-05-06 03:52 | 33.68219 | -112.03760 | 8440 ft | 274 kts | 233° |
| 2026-05-06 03:53 | 33.67053 | -112.05598 | 9167 ft | 282 kts | 238° |
| 2026-05-06 03:53 | 33.66141 | -112.07671 | 10101 ft | 282 kts | 247° |
| 2026-05-06 03:53 | 33.65346 | -112.09894 | 10475 ft | 301 kts | 249° |
| 2026-05-06 03:53 | 33.64512 | -112.12327 | 10566 ft | 328 kts | 249° |
| 2026-05-06 03:54 | 33.63543 | -112.14908 | 10800 ft | 345 kts | 244° |
| 2026-05-06 03:54 | 33.62407 | -112.17438 | 11627 ft | 343 kts | 242° |
| 2026-05-06 03:54 | 33.61285 | -112.19979 | 12310 ft | 346 kts | 244° |
| 2026-05-06 03:54 | 33.60257 | -112.22607 | 12978 ft | 349 kts | 246° |
| 2026-05-06 03:55 | 33.59231 | -112.25261 | 13661 ft | 352 kts | 244° |
| 2026-05-06 03:55 | 33.58145 | -112.27906 | 14268 ft | 355 kts | 243° |
| 2026-05-06 03:55 | 33.57413 | -112.29662 | 14655 ft | 357 kts | 244° |
| 2026-05-06 03:55 | 33.56316 | -112.32348 | 15249 ft | 360 kts | 244° |
| 2026-05-06 03:56 | 33.55227 | -112.35062 | 15858 ft | 362 kts | 244° |
| 2026-05-06 03:56 | 33.53754 | -112.38688 | 16678 ft | 366 kts | 244° |
| 2026-05-06 03:56 | 33.52990 | -112.40552 | 17110 ft | 368 kts | 244° |
| 2026-05-06 03:56 | 33.51860 | -112.43322 | 17751 ft | 371 kts | 244° |
| 2026-05-06 03:57 | 33.50723 | -112.46118 | 18384 ft | 375 kts | 244° |
| 2026-05-06 03:57 | 33.49578 | -112.48926 | 19006 ft | 376 kts | 244° |
| 2026-05-06 03:57 | 33.48435 | -112.51721 | 19654 ft | 378 kts | 244° |
| 2026-05-06 03:57 | 33.47274 | -112.54562 | 20336 ft | 380 kts | 244° |
| 2026-05-06 03:58 | 33.46120 | -112.57422 | 20969 ft | 382 kts | 246° |
| 2026-05-06 03:58 | 33.45331 | -112.60468 | 21566 ft | 384 kts | 258° |
| 2026-05-06 03:58 | 33.45059 | -112.63653 | 22221 ft | 386 kts | 269° |
| 2026-05-06 03:58 | 33.45112 | -112.66881 | 22831 ft | 388 kts | 270° |
| 2026-05-06 03:59 | 33.45158 | -112.70080 | 23422 ft | 391 kts | 270° |
| 2026-05-06 03:59 | 33.45190 | -112.73353 | 23948 ft | 394 kts | 270° |
| 2026-05-06 03:59 | 33.45230 | -112.76632 | 24516 ft | 394 kts | 269° |
| 2026-05-06 03:59 | 33.45359 | -112.79915 | 25045 ft | 396 kts | 274° |
| 2026-05-06 04:00 | 33.45867 | -112.83174 | 25582 ft | 399 kts | 280° |
| 2026-05-06 04:00 | 33.46494 | -112.86423 | 26102 ft | 401 kts | 279° |
| 2026-05-06 04:00 | 33.47100 | -112.89702 | 26642 ft | 402 kts | 278° |
| 2026-05-06 04:00 | 33.47696 | -112.92947 | 27165 ft | 404 kts | 278° |
| 2026-05-06 04:01 | 33.48314 | -112.96240 | 27696 ft | 407 kts | 278° |
| 2026-05-06 04:01 | 33.48938 | -112.99556 | 28247 ft | 409 kts | 278° |
| 2026-05-06 04:01 | 33.49558 | -113.02890 | 28818 ft | 411 kts | 278° |
| 2026-05-06 04:01 | 33.50177 | -113.06244 | 29390 ft | 413 kts | 277° |
| 2026-05-06 04:02 | 33.50802 | -113.09611 | 29964 ft | 416 kts | 277° |
| 2026-05-06 04:02 | 33.51432 | -113.13002 | 30410 ft | 419 kts | 277° |
| 2026-05-06 04:02 | 33.52064 | -113.16421 | 30831 ft | 422 kts | 277° |
| 2026-05-06 04:02 | 33.52697 | -113.19848 | 31476 ft | 420 kts | 277° |
| 2026-05-06 04:03 | 33.53327 | -113.23257 | 32135 ft | 417 kts | 277° |
| 2026-05-06 04:03 | 33.53951 | -113.26650 | 32757 ft | 416 kts | 277° |
| 2026-05-06 04:03 | 33.54570 | -113.30029 | 33380 ft | 415 kts | 277° |
| 2026-05-06 04:03 | 33.55189 | -113.33399 | 34003 ft | 413 kts | 276° |
| 2026-05-06 04:04 | 33.55805 | -113.36763 | 34495 ft | 413 kts | 276° |
| 2026-05-06 04:04 | 33.56420 | -113.40131 | 34933 ft | 414 kts | 276° |
| 2026-05-06 04:04 | 33.57029 | -113.43472 | 35378 ft | 415 kts | 277° |
| 2026-05-06 04:04 | 33.57648 | -113.46861 | 35834 ft | 416 kts | 277° |
| 2026-05-06 04:05 | 33.58265 | -113.50255 | 36264 ft | 416 kts | 277° |
| 2026-05-06 04:05 | 33.58885 | -113.53647 | 36708 ft | 417 kts | 277° |
| 2026-05-06 04:05 | 33.59525 | -113.57044 | 37159 ft | 418 kts | 277° |
| 2026-05-06 04:05 | 33.60169 | -113.60447 | 37603 ft | 419 kts | 277° |
| 2026-05-06 04:06 | 33.60804 | -113.63864 | 37986 ft | 421 kts | 277° |
| 2026-05-06 04:06 | 33.61443 | -113.67343 | 37972 ft | 432 kts | 277° |
| 2026-05-06 04:06 | 33.62103 | -113.70911 | 37974 ft | 443 kts | 278° |
| 2026-05-06 04:06 | 33.62785 | -113.74565 | 37979 ft | 452 kts | 278° |
| 2026-05-06 04:07 | 33.64165 | -113.82031 | 37958 ft | 468 kts | 278° |
| 2026-05-06 04:07 | 33.65590 | -113.89764 | 37939 ft | 479 kts | 278° |
| 2026-05-06 04:08 | 33.67040 | -113.97648 | 37927 ft | 487 kts | 278° |
| 2026-05-06 04:08 | 33.68502 | -114.05640 | 37918 ft | 492 kts | 278° |
| 2026-05-06 04:09 | 33.69966 | -114.13666 | 37915 ft | 495 kts | 278° |
| 2026-05-06 04:09 | 33.71435 | -114.21754 | 37915 ft | 496 kts | 278° |
| 2026-05-06 04:10 | 33.72902 | -114.29866 | 37908 ft | 496 kts | 278° |
| 2026-05-06 04:10 | 33.74362 | -114.37970 | 37919 ft | 496 kts | 279° |
| 2026-05-06 04:11 | 33.75818 | -114.46078 | 37927 ft | 496 kts | 279° |
| 2026-05-06 04:11 | 33.77211 | -114.54117 | 37919 ft | 490 kts | 276° |
| 2026-05-06 04:12 | 33.77750 | -114.62205 | 37933 ft | 483 kts | 271° |
| 2026-05-06 04:12 | 33.78239 | -114.70224 | 37939 ft | 479 kts | 271° |
| 2026-05-06 04:13 | 33.78684 | -114.78199 | 37929 ft | 477 kts | 271° |
| 2026-05-06 04:13 | 33.79143 | -114.86133 | 37923 ft | 475 kts | 271° |
| 2026-05-06 04:14 | 33.79583 | -114.94038 | 37919 ft | 473 kts | 271° |
| 2026-05-06 04:14 | 33.80023 | -115.01928 | 37905 ft | 472 kts | 271° |
| 2026-05-06 04:15 | 33.80455 | -115.09803 | 37888 ft | 471 kts | 271° |
| 2026-05-06 04:15 | 33.80879 | -115.17622 | 37894 ft | 471 kts | 271° |
| 2026-05-06 04:16 | 33.81301 | -115.25492 | 37893 ft | 471 kts | 271° |
| 2026-05-06 04:16 | 33.81718 | -115.33354 | 37895 ft | 471 kts | 270° |
| 2026-05-06 04:17 | 33.82133 | -115.41231 | 37889 ft | 471 kts | 271° |
| 2026-05-06 04:17 | 33.83444 | -115.48951 | 37875 ft | 480 kts | 284° |
| 2026-05-06 04:18 | 33.85859 | -115.56461 | 37902 ft | 482 kts | 287° |
| 2026-05-06 04:18 | 33.88270 | -115.64012 | 37897 ft | 484 kts | 287° |
| 2026-05-06 04:19 | 33.90719 | -115.71598 | 37893 ft | 487 kts | 287° |
| 2026-05-06 04:19 | 33.93140 | -115.79182 | 37902 ft | 489 kts | 287° |
| 2026-05-06 04:20 | 33.95593 | -115.86844 | 37898 ft | 491 kts | 287° |
| 2026-05-06 04:20 | 33.98040 | -115.94526 | 37906 ft | 491 kts | 287° |
| 2026-05-06 04:21 | 34.00494 | -116.02243 | 37936 ft | 492 kts | 287° |
| 2026-05-06 04:21 | 34.02922 | -116.09902 | 37964 ft | 492 kts | 287° |
| 2026-05-06 04:22 | 34.05363 | -116.17619 | 37979 ft | 493 kts | 287° |
| 2026-05-06 04:23 | 34.09024 | -116.29231 | 37980 ft | 494 kts | 287° |
| 2026-05-06 04:23 | 34.11459 | -116.36977 | 37981 ft | 493 kts | 287° |
| 2026-05-06 04:24 | 34.13895 | -116.44749 | 37958 ft | 494 kts | 287° |
| 2026-05-06 04:24 | 34.16311 | -116.52478 | 37947 ft | 495 kts | 287° |
| 2026-05-06 04:25 | 34.18748 | -116.60290 | 37943 ft | 496 kts | 287° |
| 2026-05-06 04:25 | 34.21164 | -116.68058 | 37956 ft | 496 kts | 287° |
| 2026-05-06 04:26 | 34.23585 | -116.75862 | 37965 ft | 496 kts | 287° |
| 2026-05-06 04:26 | 34.26004 | -116.83681 | 37987 ft | 496 kts | 287° |
| 2026-05-06 04:27 | 34.28402 | -116.91452 | 38004 ft | 497 kts | 287° |
| 2026-05-06 04:27 | 34.30815 | -116.99291 | 38026 ft | 498 kts | 287° |
| 2026-05-06 04:28 | 34.33229 | -117.07154 | 38028 ft | 498 kts | 287° |
| 2026-05-06 04:28 | 34.35637 | -117.15019 | 38037 ft | 499 kts | 287° |
| 2026-05-06 04:29 | 34.38049 | -117.22919 | 38044 ft | 500 kts | 287° |
| 2026-05-06 04:29 | 34.40444 | -117.30782 | 38061 ft | 500 kts | 287° |
| 2026-05-06 04:30 | 34.42845 | -117.38688 | 38064 ft | 501 kts | 287° |
| 2026-05-06 04:30 | 34.45248 | -117.46621 | 38068 ft | 501 kts | 287° |
| 2026-05-06 04:31 | 34.47645 | -117.54557 | 38059 ft | 502 kts | 287° |
| 2026-05-06 04:31 | 34.50039 | -117.62503 | 38051 ft | 503 kts | 287° |
| 2026-05-06 04:32 | 34.52435 | -117.70478 | 38026 ft | 503 kts | 287° |
| 2026-05-06 04:32 | 34.54818 | -117.78429 | 38031 ft | 504 kts | 287° |
| 2026-05-06 04:33 | 34.57210 | -117.86435 | 38042 ft | 504 kts | 287° |
| 2026-05-06 04:33 | 34.59595 | -117.94441 | 38053 ft | 504 kts | 287° |
| 2026-05-06 04:34 | 34.61975 | -118.02449 | 38064 ft | 504 kts | 287° |
| 2026-05-06 04:34 | 34.64835 | -118.10172 | 38055 ft | 508 kts | 296° |
| 2026-05-06 04:35 | 34.68304 | -118.17647 | 38067 ft | 508 kts | 296° |
| 2026-05-06 04:35 | 34.71692 | -118.25189 | 38063 ft | 508 kts | 296° |
| 2026-05-06 04:36 | 34.75134 | -118.32712 | 38061 ft | 509 kts | 296° |
| 2026-05-06 04:36 | 34.78534 | -118.40258 | 38065 ft | 509 kts | 296° |
| 2026-05-06 04:37 | 34.81952 | -118.47800 | 38064 ft | 509 kts | 296° |
| 2026-05-06 04:37 | 34.85357 | -118.55365 | 38072 ft | 509 kts | 296° |
| 2026-05-06 04:38 | 34.88763 | -118.62930 | 38087 ft | 510 kts | 296° |
| 2026-05-06 04:38 | 34.92172 | -118.70529 | 38092 ft | 511 kts | 296° |
| 2026-05-06 04:39 | 34.95557 | -118.78082 | 38090 ft | 511 kts | 296° |
| 2026-05-06 04:39 | 34.98964 | -118.85709 | 38079 ft | 512 kts | 296° |
| 2026-05-06 04:40 | 35.02368 | -118.93340 | 38086 ft | 512 kts | 296° |
| 2026-05-06 04:40 | 35.05771 | -119.00992 | 38081 ft | 512 kts | 297° |
| 2026-05-06 04:41 | 35.09104 | -119.08498 | 38074 ft | 513 kts | 297° |
| 2026-05-06 04:41 | 35.12500 | -119.16168 | 38066 ft | 513 kts | 297° |
| 2026-05-06 04:42 | 35.15895 | -119.23849 | 38069 ft | 514 kts | 297° |
| 2026-05-06 04:42 | 35.19266 | -119.31495 | 38064 ft | 514 kts | 297° |
| 2026-05-06 04:43 | 35.22661 | -119.39212 | 38061 ft | 514 kts | 297° |
| 2026-05-06 04:43 | 35.26026 | -119.46879 | 38057 ft | 514 kts | 297° |
| 2026-05-06 04:44 | 35.29409 | -119.54604 | 38066 ft | 515 kts | 297° |
| 2026-05-06 04:44 | 35.32785 | -119.62331 | 38066 ft | 515 kts | 297° |
| 2026-05-06 04:45 | 35.36158 | -119.70069 | 38065 ft | 515 kts | 297° |
| 2026-05-06 04:45 | 35.38960 | -119.76509 | 38070 ft | 515 kts | 297° |
| 2026-05-06 04:46 | 35.42332 | -119.84278 | 38077 ft | 516 kts | 297° |
| 2026-05-06 04:46 | 35.45706 | -119.92068 | 38070 ft | 516 kts | 297° |
| 2026-05-06 04:47 | 35.49072 | -119.99859 | 38080 ft | 516 kts | 297° |
| 2026-05-06 04:47 | 35.52407 | -120.07595 | 38077 ft | 516 kts | 297° |
| 2026-05-06 04:48 | 35.55760 | -120.15391 | 38088 ft | 516 kts | 297° |
| 2026-05-06 04:48 | 35.59116 | -120.23214 | 38082 ft | 517 kts | 297° |
| 2026-05-06 04:49 | 35.62462 | -120.31029 | 38097 ft | 516 kts | 297° |
| 2026-05-06 04:49 | 35.65784 | -120.38808 | 38110 ft | 516 kts | 297° |
| 2026-05-06 04:50 | 35.69125 | -120.46650 | 38118 ft | 516 kts | 297° |
| 2026-05-06 04:50 | 35.72452 | -120.54479 | 38124 ft | 516 kts | 297° |
| 2026-05-06 04:51 | 35.75775 | -120.62312 | 38136 ft | 516 kts | 297° |
| 2026-05-06 04:51 | 35.79093 | -120.70156 | 38122 ft | 516 kts | 297° |
| 2026-05-06 04:52 | 35.82387 | -120.77962 | 38123 ft | 517 kts | 297° |
| 2026-05-06 04:52 | 35.85700 | -120.85830 | 38109 ft | 518 kts | 297° |
| 2026-05-06 04:53 | 35.89046 | -120.93795 | 38116 ft | 527 kts | 297° |
| 2026-05-06 04:53 | 35.92436 | -121.01886 | 38101 ft | 532 kts | 297° |
| 2026-05-06 04:54 | 35.95839 | -121.10027 | 38112 ft | 534 kts | 297° |
| 2026-05-06 04:54 | 35.97544 | -121.14114 | 37719 ft | 536 kts | 297° |
| 2026-05-06 04:54 | 35.99215 | -121.18125 | 37015 ft | 517 kts | 298° |
| 2026-05-06 04:54 | 36.00842 | -121.22037 | 36344 ft | 507 kts | 298° |
| 2026-05-06 04:55 | 36.02445 | -121.25892 | 35697 ft | 501 kts | 299° |
| 2026-05-06 04:55 | 36.04030 | -121.29707 | 35039 ft | 497 kts | 299° |
| 2026-05-06 04:55 | 36.05734 | -121.33335 | 34380 ft | 490 kts | 307° |
| 2026-05-06 04:55 | 36.07904 | -121.36548 | 33684 ft | 480 kts | 318° |
| 2026-05-06 04:56 | 36.10413 | -121.39217 | 33093 ft | 477 kts | 327° |
| 2026-05-06 04:56 | 36.13240 | -121.41479 | 32466 ft | 492 kts | 333° |
| 2026-05-06 04:56 | 36.16213 | -121.43740 | 31813 ft | 509 kts | 333° |
| 2026-05-06 04:56 | 36.19213 | -121.46093 | 31129 ft | 513 kts | 333° |
| 2026-05-06 04:57 | 36.22211 | -121.48484 | 30459 ft | 512 kts | 334° |
| 2026-05-06 04:57 | 36.25217 | -121.50839 | 29715 ft | 510 kts | 335° |
| 2026-05-06 04:57 | 36.28221 | -121.53157 | 29053 ft | 508 kts | 335° |
| 2026-05-06 04:57 | 36.31169 | -121.55458 | 28390 ft | 506 kts | 334° |
| 2026-05-06 04:58 | 36.34140 | -121.57809 | 27735 ft | 506 kts | 334° |
| 2026-05-06 04:58 | 36.37119 | -121.60159 | 27060 ft | 506 kts | 334° |
| 2026-05-06 04:58 | 36.40094 | -121.62486 | 26395 ft | 504 kts | 334° |
| 2026-05-06 04:58 | 36.43053 | -121.64805 | 25734 ft | 502 kts | 333° |
| 2026-05-06 04:59 | 36.45984 | -121.67121 | 25084 ft | 492 kts | 333° |
| 2026-05-06 04:59 | 36.48832 | -121.69377 | 24437 ft | 479 kts | 333° |
| 2026-05-06 04:59 | 36.51622 | -121.71573 | 23816 ft | 471 kts | 333° |
| 2026-05-06 04:59 | 36.54318 | -121.73699 | 23160 ft | 444 kts | 332° |
| 2026-05-06 05:00 | 36.56737 | -121.75635 | 22613 ft | 392 kts | 333° |
| 2026-05-06 05:00 | 36.58978 | -121.77402 | 22104 ft | 382 kts | 333° |
| 2026-05-06 05:00 | 36.61216 | -121.79149 | 21610 ft | 376 kts | 333° |
| 2026-05-06 05:00 | 36.63415 | -121.80888 | 21122 ft | 372 kts | 332° |
| 2026-05-06 05:01 | 36.65591 | -121.82625 | 20632 ft | 369 kts | 332° |
| 2026-05-06 05:01 | 36.67754 | -121.84343 | 20143 ft | 367 kts | 332° |
| 2026-05-06 05:01 | 36.69904 | -121.86044 | 19661 ft | 365 kts | 332° |
| 2026-05-06 05:01 | 36.72047 | -121.87745 | 19190 ft | 366 kts | 332° |
| 2026-05-06 05:02 | 36.74175 | -121.89289 | 19090 ft | 348 kts | 340° |
| 2026-05-06 05:02 | 36.76459 | -121.90071 | 19128 ft | 342 kts | 352° |
| 2026-05-06 05:02 | 36.78832 | -121.90710 | 18986 ft | 357 kts | 352° |
| 2026-05-06 05:02 | 36.81266 | -121.91393 | 18427 ft | 361 kts | 351° |
| 2026-05-06 05:03 | 36.83710 | -121.92092 | 17806 ft | 358 kts | 351° |
| 2026-05-06 05:03 | 36.86129 | -121.92770 | 17236 ft | 354 kts | 351° |
| 2026-05-06 05:03 | 36.88525 | -121.93432 | 16656 ft | 350 kts | 351° |
| 2026-05-06 05:03 | 36.90890 | -121.94091 | 16089 ft | 346 kts | 350° |
| 2026-05-06 05:04 | 36.93231 | -121.94749 | 15524 ft | 342 kts | 350° |
| 2026-05-06 05:04 | 36.95537 | -121.95438 | 14933 ft | 339 kts | 346° |
| 2026-05-06 05:04 | 36.97781 | -121.96330 | 14366 ft | 337 kts | 345° |
| 2026-05-06 05:04 | 37.00009 | -121.97197 | 13837 ft | 333 kts | 345° |
| 2026-05-06 05:05 | 37.02213 | -121.98042 | 13221 ft | 331 kts | 345° |
| 2026-05-06 05:05 | 37.04403 | -121.98894 | 12701 ft | 326 kts | 344° |
| 2026-05-06 05:05 | 37.06556 | -121.99739 | 12275 ft | 323 kts | 344° |
| 2026-05-06 05:05 | 37.08670 | -122.00566 | 11853 ft | 320 kts | 344° |
| 2026-05-06 05:06 | 37.10793 | -122.01393 | 11421 ft | 318 kts | 343° |
| 2026-05-06 05:06 | 37.12905 | -122.02218 | 10998 ft | 317 kts | 343° |
| 2026-05-06 05:06 | 37.15006 | -122.03040 | 10582 ft | 316 kts | 343° |
| 2026-05-06 05:06 | 37.17101 | -122.03860 | 10168 ft | 315 kts | 343° |
| 2026-05-06 05:07 | 37.19199 | -122.04682 | 9728 ft | 315 kts | 343° |
| 2026-05-06 05:07 | 37.21287 | -122.05500 | 9317 ft | 313 kts | 343° |
| 2026-05-06 05:07 | 37.23362 | -122.06314 | 8901 ft | 312 kts | 343° |
| 2026-05-06 05:07 | 37.25330 | -122.07085 | 8507 ft | 283 kts | 343° |
| 2026-05-06 05:08 | 37.27199 | -122.07819 | 8110 ft | 281 kts | 342° |
| 2026-05-06 05:08 | 37.29071 | -122.08554 | 7651 ft | 280 kts | 342° |
| 2026-05-06 05:08 | 37.30906 | -122.09277 | 7313 ft | 273 kts | 342° |
| 2026-05-06 05:08 | 37.32700 | -122.09985 | 6994 ft | 267 kts | 342° |
| 2026-05-06 05:09 | 37.34462 | -122.10680 | 6658 ft | 262 kts | 342° |
| 2026-05-06 05:09 | 37.36183 | -122.11358 | 6348 ft | 258 kts | 342° |
| 2026-05-06 05:09 | 37.37901 | -122.11989 | 6108 ft | 252 kts | 346° |
| 2026-05-06 05:09 | 37.39547 | -122.12507 | 6115 ft | 237 kts | 343° |
| 2026-05-06 05:10 | 37.41066 | -122.13090 | 6095 ft | 224 kts | 342° |
| 2026-05-06 05:10 | 37.42552 | -122.13622 | 6022 ft | 223 kts | 344° |
| 2026-05-06 05:10 | 37.44097 | -122.14144 | 5253 ft | 240 kts | 344° |
| 2026-05-06 05:10 | 37.45789 | -122.14717 | 4387 ft | 258 kts | 344° |
| 2026-05-06 05:11 | 37.47485 | -122.15274 | 4253 ft | 248 kts | 344° |
| 2026-05-06 05:11 | 37.49144 | -122.15815 | 3968 ft | 245 kts | 343° |
| 2026-05-06 05:11 | 37.50791 | -122.16359 | 3677 ft | 244 kts | 343° |
| 2026-05-06 05:11 | 37.52430 | -122.16920 | 3396 ft | 242 kts | 341° |
| 2026-05-06 05:12 | 37.53816 | -122.18053 | 3020 ft | 238 kts | 311° |
| 2026-05-06 05:12 | 37.54696 | -122.19781 | 2800 ft | 233 kts | 297° |
| 2026-05-06 05:12 | 37.55420 | -122.21579 | 2540 ft | 222 kts | 296° |
| 2026-05-06 05:12 | 37.56073 | -122.23133 | 2275 ft | 185 kts | 297° |
| 2026-05-06 05:13 | 37.56634 | -122.24459 | 2091 ft | 161 kts | 297° |
| 2026-05-06 05:13 | 37.57138 | -122.25662 | 1903 ft | 148 kts | 297° |
| 2026-05-06 05:13 | 37.57602 | -122.26768 | 1704 ft | 137 kts | 297° |
| 2026-05-06 05:13 | 37.58038 | -122.27808 | 1524 ft | 131 kts | 297° |
| 2026-05-06 05:14 | 37.58457 | -122.28819 | 1335 ft | 130 kts | 297° |
| 2026-05-06 05:14 | 37.58887 | -122.29823 | 1123 ft | 128 kts | 298° |
| 2026-05-06 05:14 | 37.59302 | -122.30804 | 971 ft | 127 kts | 297° |
| 2026-05-06 05:14 | 37.59725 | -122.31780 | 766 ft | 127 kts | 297° |
| 2026-05-06 05:15 | 37.60141 | -122.32745 | 619 ft | 123 kts | 295° |
| 2026-05-06 05:15 | 37.60527 | -122.33714 | 437 ft | 123 kts | 295° |
| 2026-05-06 05:15 | 37.60906 | -122.34650 | 293 ft | 120 kts | 295° |
| 2026-05-06 05:15 | 37.61291 | -122.35569 | 147 ft | 117 kts | 296° |
| 2026-05-06 05:16 | 37.61668 | -122.36467 | 26 ft | 111 kts | 296° |
| 2026-05-06 05:16 | 37.61982 | -122.37216 | 12 ft | 72 kts | 298° |
| 2026-05-06 05:16 | 37.62152 | -122.37616 | 16 ft | 26 kts | 303° |
| 2026-05-06 05:16 | 37.62227 | -122.37791 | 17 ft | 30 kts | 292° |
| 2026-05-06 05:17 | 37.62340 | -122.38062 | 17 ft | 27 kts | 303° |
| 2026-05-06 05:17 | 37.62475 | -122.38132 | 15 ft | 9 kts | 11° |
| 2026-05-06 05:17 | 37.62480 | -122.38131 | 15 ft | 0 kts | 14° |
| 2026-05-06 05:18 | 37.62492 | -122.38127 | 15 ft | 3 kts | 13° |
| 2026-05-06 05:18 | 37.62519 | -122.38133 | 15 ft | 5 kts | 337° |
| 2026-05-06 05:18 | 37.62539 | -122.38179 | 14 ft | 7 kts | 293° |
| 2026-05-06 05:18 | 37.62570 | -122.38248 | 13 ft | 11 kts | 300° |
| 2026-05-06 05:19 | 37.62613 | -122.38345 | 13 ft | 14 kts | 298° |
| 2026-05-06 05:19 | 37.62658 | -122.38450 | 15 ft | 11 kts | 307° |
| 2026-05-06 05:19 | 37.62721 | -122.38435 | 14 ft | 7 kts | 36° |
| 2026-05-06 05:19 | 37.62768 | -122.38402 | 13 ft | 9 kts | 5° |
| 2026-05-06 05:20 | 37.62787 | -122.38425 | 13 ft | 0 kts | 246° |
| 2026-05-06 05:20 | 37.62786 | -122.38425 | 13 ft | 0 kts | 246° |